createdAt,value
2023-05-02T00:01:33.213Z,99789.31
2023-05-02T00:04:05.130Z,99791.31
2023-05-02T00:06:35.585Z,99787.94
2023-05-02T00:09:07.760Z,99788.06
2023-05-02T00:11:37.400Z,99778.47
2023-05-02T00:14:07.207Z,99777.81
2023-05-02T00:16:36.800Z,99783.19
2023-05-02T00:19:06.494Z,99775.38
2023-05-02T00:21:36.027Z,99766.63
2023-05-02T00:24:08.970Z,99771.91
2023-05-02T00:26:38.522Z,99764.03
2023-05-02T00:29:08.564Z,99763.03
2023-05-02T00:31:38.428Z,99763.91
2023-05-02T00:34:08.084Z,99764.81
2023-05-02T00:36:37.608Z,99760.50
2023-05-02T00:39:09.958Z,99764.91
2023-05-02T00:41:39.486Z,99760.53
2023-05-02T00:44:09.020Z,99762.38
2023-05-02T00:46:38.655Z,99753.56
2023-05-02T00:49:08.459Z,99764.13
2023-05-02T00:51:37.991Z,99757.13
2023-05-02T00:54:11.131Z,99751.81
2023-05-02T00:56:40.693Z,99747.44
2023-05-02T00:59:12.556Z,99757.16
2023-05-02T01:01:53.100Z,99748.44
2023-05-02T01:04:32.971Z,99753.75
2023-05-02T01:07:25.506Z,99756.47
2023-05-02T01:10:07.467Z,99746.84
2023-05-02T01:12:44.653Z,99748.59
2023-05-02T01:15:19.503Z,99742.50
2023-05-02T01:17:51.476Z,99746.06
2023-05-02T01:20:24.402Z,99746.97
2023-05-02T01:22:55.158Z,99755.81
2023-05-02T01:25:35.079Z,99752.44
2023-05-02T01:28:17.238Z,99756.88
2023-05-02T01:30:51.112Z,99764.00
2023-05-02T01:33:21.971Z,99762.28
2023-05-02T01:35:54.346Z,99768.47
2023-05-02T01:38:25.772Z,99772.00
2023-05-02T01:40:56.957Z,99776.41
2023-05-02T01:43:28.807Z,99771.16
2023-05-02T01:46:04.463Z,99773.78
2023-05-02T01:48:35.558Z,99761.53
2023-05-02T01:51:08.168Z,99764.09
2023-05-02T01:53:39.285Z,99767.59
2023-05-02T01:56:10.178Z,99772.78
2023-05-02T01:58:41.360Z,99768.41
2023-05-02T02:01:14.783Z,99771.03
2023-05-02T02:03:45.852Z,99762.28
2023-05-02T02:06:17.371Z,99765.81
2023-05-02T02:08:47.135Z,99758.81
2023-05-02T02:11:24.974Z,99763.25
2023-05-02T02:14:03.343Z,99773.81
2023-05-02T02:16:40.874Z,99769.50
2023-05-02T02:19:13.659Z,99775.69
2023-05-02T02:21:45.361Z,99780.09
2023-05-02T02:24:16.290Z,99788.00
2023-05-02T02:26:46.616Z,99798.53
2023-05-02T02:29:16.191Z,99802.91
2023-05-02T02:31:48.318Z,99804.63
2023-05-02T02:34:17.876Z,99804.63
2023-05-02T02:36:50.765Z,99802.84
2023-05-02T02:39:31.710Z,99814.28
2023-05-02T02:42:11.884Z,99809.00
2023-05-02T02:44:50.489Z,99815.16
2023-05-02T02:47:29.445Z,99812.53
2023-05-02T02:50:14.320Z,99816.88
2023-05-02T02:52:55.137Z,99818.63
2023-05-02T02:55:34.403Z,99810.72
2023-05-02T02:58:13.064Z,99815.94
2023-05-02T03:00:43.545Z,99824.69
2023-05-02T03:03:17.932Z,99825.53
2023-05-02T03:05:47.806Z,99827.25
2023-05-02T03:10:52.049Z,99825.25
2023-05-02T03:13:21.620Z,99831.28
2023-05-02T03:16:27.557Z,99832.03
2023-05-02T03:18:59.879Z,99836.38
2023-05-02T03:21:31.728Z,99835.41
2023-05-02T03:24:02.175Z,99834.41
2023-05-02T03:26:31.880Z,99844.88
2023-05-02T03:29:01.494Z,99846.59
2023-05-02T03:31:31.068Z,99847.41
2023-05-02T03:34:03.197Z,99858.75
2023-05-02T03:36:32.794Z,99856.97
2023-05-02T03:39:02.363Z,99861.31
2023-05-02T03:41:31.975Z,99865.66
2023-05-02T03:44:01.548Z,99868.19
2023-05-02T03:46:31.156Z,99858.53
2023-05-02T03:49:03.332Z,99865.50
2023-05-02T03:51:33.973Z,99869.03
2023-05-02T03:54:04.339Z,99875.16
2023-05-02T03:56:33.875Z,99886.59
2023-05-02T03:59:04.261Z,99889.22
2023-05-02T04:01:34.023Z,99898.81
2023-05-02T04:04:06.470Z,99900.53
2023-05-02T04:06:36.354Z,99918.97
2023-05-02T04:09:05.967Z,99916.38
2023-05-02T04:11:35.638Z,99912.00
2023-05-02T04:14:05.147Z,99909.38
2023-05-02T04:16:34.778Z,99918.19
2023-05-02T04:19:07.020Z,99919.97
2023-05-02T04:21:39.799Z,99919.97
2023-05-02T04:24:09.364Z,99922.63
2023-05-02T04:26:38.881Z,99927.03
2023-05-02T04:29:18.796Z,99930.59
2023-05-02T04:31:49.071Z,99934.16
2023-05-02T04:34:21.225Z,99941.22
2023-05-02T04:36:50.879Z,99942.97
2023-05-02T04:39:20.382Z,99953.59
2023-05-02T04:41:49.941Z,99959.81
2023-05-02T04:44:19.441Z,99961.59
2023-05-02T04:46:49.084Z,99973.88
2023-05-02T04:49:21.315Z,99973.91
2023-05-02T04:51:52.228Z,99977.47
2023-05-02T04:54:21.787Z,99974.84
2023-05-02T04:56:51.317Z,99975.75
2023-05-02T04:59:20.840Z,99973.09
2023-05-02T05:01:50.496Z,99973.13
2023-05-02T05:04:22.767Z,99969.69
2023-05-02T05:06:52.483Z,99970.59
2023-05-02T05:09:22.314Z,99976.75
2023-05-02T05:11:51.903Z,99978.56
2023-05-02T05:14:21.482Z,99983.94
2023-05-02T05:16:51.231Z,99986.63
2023-05-02T05:19:24.404Z,99983.09
2023-05-02T05:21:54.018Z,99991.84
2023-05-02T05:24:23.630Z,99982.22
2023-05-02T05:26:53.490Z,99993.66
2023-05-02T05:29:23.146Z,99992.66
2023-05-02T05:31:54.837Z,99994.25
2023-05-02T05:34:27.286Z,100001.31
2023-05-02T05:36:56.974Z,100002.22
2023-05-02T05:39:26.869Z,100010.19
2023-05-02T05:41:57.731Z,100016.31
2023-05-02T05:44:27.391Z,100019.00
2023-05-02T05:46:57.249Z,100014.56
2023-05-02T05:49:29.444Z,100026.00
2023-05-02T05:51:58.995Z,100019.78
2023-05-02T05:54:28.502Z,100024.16
2023-05-02T05:56:58.111Z,100030.34
2023-05-02T05:59:27.803Z,100036.31
2023-05-02T06:01:57.675Z,100031.00
2023-05-02T06:04:29.810Z,100033.56
2023-05-02T06:06:59.586Z,100039.59
2023-05-02T06:09:29.166Z,100041.31
2023-05-02T06:11:58.725Z,100049.22
2023-05-02T06:14:28.263Z,100049.06
2023-05-02T06:16:57.745Z,100048.88
2023-05-02T06:19:29.920Z,100053.22
2023-05-02T06:21:59.485Z,100048.78
2023-05-02T06:24:29.051Z,100053.03
2023-05-02T06:26:58.557Z,100051.91
2023-05-02T06:29:28.225Z,100059.69
2023-05-02T06:31:58.664Z,100070.13
2023-05-02T06:34:30.857Z,100076.88
2023-05-02T06:37:00.447Z,100081.13
2023-05-02T06:39:30.236Z,100077.41
2023-05-02T06:41:59.982Z,100078.31
2023-05-02T06:44:29.620Z,100086.13
2023-05-02T06:46:59.304Z,100095.75
2023-05-02T06:49:31.658Z,100094.09
2023-05-02T06:52:01.468Z,100097.31
2023-05-02T06:54:31.021Z,100101.81
2023-05-02T06:57:01.082Z,100102.63
2023-05-02T06:59:30.691Z,100106.66
2023-05-02T07:02:00.199Z,100110.53
2023-05-02T07:04:32.371Z,100101.19
2023-05-02T07:07:01.877Z,100109.13
2023-05-02T07:09:31.458Z,100108.38
2023-05-02T07:12:05.310Z,100119.22
2023-05-02T07:14:36.219Z,100114.88
2023-05-02T07:17:06.046Z,100117.19
2023-05-02T07:19:38.285Z,100111.91
2023-05-02T07:22:09.107Z,100115.03
2023-05-02T07:24:38.609Z,100117.38
2023-05-02T07:27:08.133Z,100123.88
2023-05-02T07:29:37.636Z,100125.06
2023-05-02T07:32:07.675Z,100133.41
2023-05-02T07:34:39.832Z,100136.22
2023-05-02T07:37:09.332Z,100140.97
2023-05-02T07:39:38.872Z,100147.16
2023-05-02T07:42:08.430Z,100147.84
2023-05-02T07:44:38.006Z,100144.75
2023-05-02T07:47:07.560Z,100153.22
2023-05-02T07:49:39.717Z,100158.78
2023-05-02T07:52:09.222Z,100150.84
2023-05-02T07:54:38.790Z,100153.44
2023-05-02T07:57:08.886Z,100158.59
2023-05-02T07:59:38.440Z,100159.09
2023-05-02T08:02:08.049Z,100163.25
2023-05-02T08:04:40.385Z,100159.69
2023-05-02T08:07:09.969Z,100168.53
2023-05-02T08:09:39.479Z,100163.75
2023-05-02T08:12:09.027Z,100172.69
2023-05-02T08:14:38.575Z,100176.97
2023-05-02T08:17:08.067Z,100181.25
2023-05-02T08:19:40.192Z,100172.34
2023-05-02T08:22:09.754Z,100173.63
2023-05-02T08:24:39.321Z,100174.31
2023-05-02T08:27:09.520Z,100172.31
2023-05-02T08:29:39.028Z,100181.25
2023-05-02T08:32:08.624Z,100181.28
2023-05-02T08:34:41.071Z,100179.13
2023-05-02T08:37:12.328Z,100178.09
2023-05-02T08:39:41.931Z,100180.94
2023-05-02T08:42:11.827Z,100182.28
2023-05-02T08:44:41.467Z,100187.31
2023-05-02T08:47:14.091Z,100185.19
2023-05-02T08:49:47.117Z,100188.34
2023-05-02T08:52:18.615Z,100195.59
2023-05-02T08:54:48.590Z,100197.88
2023-05-02T08:57:18.124Z,100189.91
2023-05-02T08:59:48.800Z,100202.47
2023-05-02T09:02:31.204Z,100206.84
2023-05-02T09:05:10.288Z,100208.59
2023-05-02T09:07:51.837Z,100209.28
2023-05-02T09:10:21.508Z,100213.44
2023-05-02T09:12:51.109Z,100214.69
2023-05-02T09:15:21.116Z,100217.84
2023-05-02T09:17:51.502Z,100219.50
2023-05-02T09:20:23.817Z,100222.00
2023-05-02T09:22:54.736Z,100223.75
2023-05-02T09:25:24.281Z,100230.16
2023-05-02T09:27:56.160Z,100231.69
2023-05-02T09:30:27.909Z,100237.03
2023-05-02T09:35:36.052Z,100243.25
2023-05-02T09:38:05.608Z,100240.16
2023-05-02T09:40:35.130Z,100245.19
2023-05-02T09:43:17.366Z,100245.03
2023-05-02T09:45:59.427Z,100254.19
2023-05-02T09:48:29.990Z,100256.34
2023-05-02T09:51:02.775Z,100251.88
2023-05-02T09:53:32.361Z,100259.13
2023-05-02T09:56:06.199Z,100253.88
2023-05-02T09:58:35.703Z,100264.66
2023-05-02T10:01:05.493Z,100264.41
2023-05-02T10:03:39.825Z,100264.81
2023-05-02T10:06:12.384Z,100263.66
2023-05-02T10:08:42.638Z,100264.06
2023-05-02T10:11:12.716Z,100272.09
2023-05-02T10:13:43.950Z,100267.03
2023-05-02T10:16:15.888Z,100280.41
2023-05-02T10:18:51.023Z,100277.41
2023-05-02T10:21:29.539Z,100283.81
2023-05-02T10:24:01.197Z,100278.19
2023-05-02T10:26:31.911Z,100280.69
2023-05-02T10:29:02.558Z,100276.91
2023-05-02T10:31:37.783Z,100278.56
2023-05-02T10:34:10.756Z,100285.00
2023-05-02T10:36:43.160Z,100283.31
2023-05-02T10:39:12.854Z,100284.34
2023-05-02T10:41:44.463Z,100290.34
2023-05-02T10:44:14.029Z,100291.50
2023-05-02T10:46:44.060Z,100285.66
2023-05-02T10:49:15.662Z,100294.47
2023-05-02T10:51:47.777Z,100294.25
2023-05-02T10:54:24.967Z,100298.25
2023-05-02T10:57:09.023Z,100299.91
2023-05-02T10:59:40.409Z,100288.28
2023-05-02T11:02:45.655Z,100289.69
2023-05-02T11:05:15.361Z,100300.72
2023-05-02T11:07:47.683Z,100301.09
2023-05-02T11:10:31.566Z,100303.19
2023-05-02T11:13:01.887Z,100296.47
2023-05-02T11:16:00.030Z,100309.00
2023-05-02T11:18:29.716Z,100306.38
2023-05-02T11:21:28.797Z,100295.94
2023-05-02T11:24:28.152Z,100309.38
2023-05-02T11:27:38.622Z,100312.28
2023-05-02T11:30:10.058Z,100306.34
2023-05-02T11:33:09.815Z,100312.53
2023-05-02T11:35:39.390Z,100313.03
2023-05-02T11:38:13.147Z,100313.25
2023-05-02T11:40:43.105Z,100313.81
2023-05-02T11:43:21.985Z,100328.06
2023-05-02T11:45:51.930Z,100323.56
2023-05-02T11:48:23.758Z,100318.84
2023-05-02T11:50:55.356Z,100327.72
2023-05-02T11:53:26.768Z,100325.38
2023-05-02T11:55:57.840Z,100321.88
2023-05-02T11:58:32.975Z,100326.66
2023-05-02T12:01:14.118Z,100322.91
2023-05-02T12:03:44.074Z,100322.09
2023-05-02T12:06:16.040Z,100318.28
2023-05-02T12:08:47.326Z,100321.19
2023-05-02T12:11:18.273Z,100318.97
2023-05-02T12:13:51.966Z,100310.66
2023-05-02T12:16:22.524Z,100311.06
2023-05-02T12:18:52.378Z,100311.56
2023-05-02T12:21:22.500Z,100313.63
2023-05-02T12:23:52.299Z,100315.44
2023-05-02T12:26:25.473Z,100324.31
2023-05-02T12:28:59.188Z,100332.72
2023-05-02T12:31:31.589Z,100340.16
2023-05-02T12:34:01.675Z,100352.22
2023-05-02T12:36:33.705Z,100355.78
2023-05-02T12:39:06.201Z,100350.81
2023-05-02T12:41:37.250Z,100358.63
2023-05-02T12:44:10.059Z,100362.59
2023-05-02T12:46:39.606Z,100375.19
2023-05-02T12:49:12.682Z,100372.09
2023-05-02T12:51:43.989Z,100388.31
2023-05-02T12:54:23.374Z,100391.28
2023-05-02T12:56:53.617Z,100391.44
2023-05-02T12:59:33.927Z,100386.66
2023-05-02T13:02:03.538Z,100384.22
2023-05-02T13:04:40.272Z,100382.47
2023-05-02T13:07:09.860Z,100378.09
2023-05-02T13:09:39.504Z,100375.44
2023-05-02T13:12:09.454Z,100363.94
2023-05-02T13:14:41.666Z,100362.16
2023-05-02T13:17:11.451Z,100370.13
2023-05-02T13:19:50.612Z,100364.75
2023-05-02T13:22:27.550Z,100357.66
2023-05-02T13:24:57.161Z,100364.63
2023-05-02T13:27:27.095Z,100367.03
2023-05-02T13:29:59.536Z,100368.53
2023-05-02T13:32:29.301Z,100361.28
2023-05-02T13:34:58.884Z,100359.16
2023-05-02T13:37:28.439Z,100361.63
2023-05-02T13:39:57.973Z,100362.19
2023-05-02T13:42:27.663Z,100360.69
2023-05-02T13:44:59.819Z,100371.66
2023-05-02T13:47:29.384Z,100371.44
2023-05-02T13:49:59.152Z,100369.47
2023-05-02T13:52:29.099Z,100363.94
2023-05-02T13:54:58.624Z,100367.56
2023-05-02T13:57:28.163Z,100370.09
2023-05-02T14:00:00.455Z,100372.03
2023-05-02T14:02:30.397Z,100371.38
2023-05-02T14:05:00.023Z,100376.22
2023-05-02T14:07:29.640Z,100373.84
2023-05-02T14:09:59.396Z,100368.44
2023-05-02T14:12:29.238Z,100373.16
2023-05-02T14:15:01.628Z,100371.94
2023-05-02T14:17:31.820Z,100378.47
2023-05-02T14:20:01.845Z,100380.28
2023-05-02T14:22:31.499Z,100373.81
2023-05-02T14:25:01.146Z,100373.41
2023-05-02T14:27:31.913Z,100376.81
2023-05-02T14:30:04.384Z,100381.00
2023-05-02T14:32:34.136Z,100372.22
2023-05-02T14:35:04.289Z,100384.28
2023-05-02T14:37:33.991Z,100386.31
2023-05-02T14:40:04.177Z,100386.84
2023-05-02T14:42:33.929Z,100385.78
2023-05-02T14:45:06.444Z,100390.22
2023-05-02T14:47:36.023Z,100387.66
2023-05-02T14:50:06.748Z,100394.81
2023-05-02T14:52:36.337Z,100390.53
2023-05-02T14:55:06.454Z,100391.28
2023-05-02T14:57:36.396Z,100398.94
2023-05-02T15:00:10.631Z,100394.28
2023-05-02T15:02:40.439Z,100394.97
2023-05-02T15:05:12.547Z,100402.91
2023-05-02T15:07:42.376Z,100402.78
2023-05-02T15:10:12.143Z,100403.72
2023-05-02T15:12:43.318Z,100408.34
2023-05-02T15:15:16.099Z,100414.53
2023-05-02T15:17:45.768Z,100415.13
2023-05-02T15:20:16.025Z,100413.69
2023-05-02T15:22:45.603Z,100416.22
2023-05-02T15:25:15.136Z,100421.47
2023-05-02T15:27:44.691Z,100416.22
2023-05-02T15:30:18.051Z,100413.44
2023-05-02T15:32:47.756Z,100418.84
2023-05-02T15:35:17.276Z,100419.06
2023-05-02T15:37:46.806Z,100415.97
2023-05-02T15:40:17.236Z,100421.09
2023-05-02T15:42:47.250Z,100423.69
2023-05-02T15:45:19.361Z,100432.16
2023-05-02T15:47:48.931Z,100434.88
2023-05-02T15:50:18.918Z,100424.69
2023-05-02T15:52:48.431Z,100428.38
2023-05-02T15:55:18.000Z,100434.88
2023-05-02T15:57:47.548Z,100434.28
2023-05-02T16:00:20.354Z,100434.25
2023-05-02T16:02:50.121Z,100435.56
2023-05-02T16:05:19.799Z,100432.94
2023-05-02T16:07:49.627Z,100439.19
2023-05-02T16:10:19.284Z,100440.94
2023-05-02T16:12:48.824Z,100430.34
2023-05-02T16:15:21.370Z,100439.03
2023-05-02T16:17:51.485Z,100442.16
2023-05-02T16:20:21.530Z,100441.03
2023-05-02T16:22:51.516Z,100444.78
2023-05-02T16:25:21.326Z,100438.56
2023-05-02T16:27:50.843Z,100448.59
2023-05-02T16:30:23.099Z,100444.34
2023-05-02T16:32:52.664Z,100445.50
2023-05-02T16:35:22.465Z,100448.44
2023-05-02T16:37:52.246Z,100458.25
2023-05-02T16:40:21.863Z,100453.94
2023-05-02T16:42:51.532Z,100452.34
2023-05-02T16:45:24.022Z,100469.03
2023-05-02T16:47:53.656Z,100469.84
2023-05-02T16:50:23.397Z,100472.06
2023-05-02T16:52:56.799Z,100468.13
2023-05-02T16:55:26.374Z,100474.75
2023-05-02T16:57:55.934Z,100471.66
2023-05-02T17:00:28.146Z,100477.00
2023-05-02T17:02:57.844Z,100481.41
2023-05-02T17:05:27.579Z,100486.72
2023-05-02T17:07:57.142Z,100485.94
2023-05-02T17:10:26.664Z,100487.94
2023-05-02T17:12:58.542Z,100482.03
2023-05-02T17:15:30.715Z,100482.84
2023-05-02T17:18:00.341Z,100495.25
2023-05-02T17:20:30.005Z,100496.22
2023-05-02T17:23:00.567Z,100502.38
2023-05-02T17:25:30.131Z,100498.13
2023-05-02T17:27:59.700Z,100499.16
2023-05-02T17:30:32.326Z,100501.81
2023-05-02T17:33:02.044Z,100502.88
2023-05-02T17:35:32.007Z,100500.38
2023-05-02T17:38:01.547Z,100506.69
2023-05-02T17:40:31.113Z,100507.63
2023-05-02T17:43:01.754Z,100513.94
2023-05-02T17:45:34.057Z,100519.25
2023-05-02T17:48:04.094Z,100519.41
2023-05-02T17:50:34.108Z,100527.38
2023-05-02T17:53:04.856Z,100531.00
2023-05-02T17:55:34.532Z,100524.94
2023-05-02T17:58:04.082Z,100528.50
2023-05-02T18:00:36.292Z,100534.88
2023-05-02T18:03:05.960Z,100545.53
2023-05-02T18:05:40.469Z,100546.44
2023-05-02T18:08:10.337Z,100554.47
2023-05-02T18:10:40.294Z,100551.09
2023-05-02T18:13:10.303Z,100562.69
2023-05-02T18:15:42.556Z,100558.31
2023-05-02T18:18:12.219Z,100563.69
2023-05-02T18:20:42.415Z,100568.13
2023-05-02T18:23:11.973Z,100574.38
2023-05-02T18:25:41.602Z,100572.66
2023-05-02T18:28:13.503Z,100574.47
2023-05-02T18:30:45.562Z,100571.88
2023-05-02T18:33:15.150Z,100578.09
2023-05-02T18:35:47.780Z,100580.78
2023-05-02T18:38:17.649Z,100587.00
2023-05-02T18:40:47.244Z,100589.72
2023-05-02T18:43:16.823Z,100592.41
2023-05-02T18:45:48.966Z,100593.31
2023-05-02T18:48:18.496Z,100596.00
2023-05-02T18:50:47.993Z,100604.88
2023-05-02T18:53:19.533Z,100596.09
2023-05-02T18:55:49.285Z,100595.25
2023-05-02T18:58:18.856Z,100597.03
2023-05-02T19:00:51.126Z,100609.47
2023-05-02T19:03:20.753Z,100609.50
2023-05-02T19:05:51.454Z,100625.44
2023-05-02T19:08:21.262Z,100620.16
2023-05-02T19:10:50.855Z,100629.91
2023-05-02T19:13:20.564Z,100630.81
2023-05-02T19:15:52.803Z,100626.44
2023-05-02T19:18:23.308Z,100641.47
2023-05-02T19:20:52.874Z,100636.22
2023-05-02T19:23:23.328Z,100643.28
2023-05-02T19:25:53.080Z,100643.31
2023-05-02T19:28:23.060Z,100652.13
2023-05-02T19:30:55.177Z,100654.81
2023-05-02T19:33:24.747Z,100656.59
2023-05-02T19:35:54.338Z,100667.19
2023-05-02T19:38:23.838Z,100668.06
2023-05-02T19:40:53.370Z,100665.44
2023-05-02T19:43:22.903Z,100665.44
2023-05-02T19:45:55.608Z,100672.50
2023-05-02T19:48:25.191Z,100676.91
2023-05-02T19:50:54.763Z,100684.88
2023-05-02T19:53:24.293Z,100683.94
2023-05-02T19:55:53.818Z,100684.81
2023-05-02T19:58:23.375Z,100686.56
2023-05-02T20:00:55.754Z,100689.25
2023-05-02T20:03:25.724Z,100695.41
2023-05-02T20:05:57.460Z,100699.78
2023-05-02T20:08:28.286Z,100700.69
2023-05-02T20:10:57.880Z,100698.94
2023-05-02T20:13:27.432Z,100695.38
2023-05-02T20:15:59.605Z,100701.56
2023-05-02T20:18:29.174Z,100709.47
2023-05-02T20:20:58.709Z,100711.25
2023-05-02T20:23:28.252Z,100706.84
2023-05-02T20:25:57.844Z,100708.59
2023-05-02T20:28:27.778Z,100711.25
2023-05-02T20:30:59.887Z,100713.88
2023-05-02T20:33:43.829Z,100714.78
2023-05-02T20:36:15.893Z,100722.69
2023-05-02T20:38:45.475Z,100717.41
2023-05-02T20:41:15.766Z,100725.34
2023-05-02T20:43:47.226Z,100727.09
2023-05-02T20:46:20.244Z,100718.28
2023-05-02T20:48:49.888Z,100725.31
2023-05-02T20:51:19.399Z,100730.59
2023-05-02T20:53:49.126Z,100723.56
2023-05-02T20:56:18.691Z,100735.91
2023-05-02T20:58:48.218Z,100735.91
2023-05-02T21:01:20.508Z,100736.78
2023-05-02T21:03:50.135Z,100741.19
2023-05-02T21:06:21.723Z,100743.84
2023-05-02T21:08:54.817Z,100742.94
2023-05-02T21:11:24.553Z,100751.75
2023-05-02T21:13:54.067Z,100757.91
2023-05-02T21:16:26.381Z,100755.25
2023-05-02T21:18:56.007Z,100769.34
2023-05-02T21:21:25.988Z,100776.38
2023-05-02T21:23:55.651Z,100771.06
2023-05-02T21:26:25.198Z,100764.03
2023-05-02T21:28:55.242Z,100769.31
2023-05-02T21:31:27.454Z,100762.25
2023-05-02T21:33:57.228Z,100769.28
2023-05-02T21:36:27.525Z,100779.84
2023-05-02T21:38:57.138Z,100776.34
2023-05-02T21:41:26.675Z,100787.78
2023-05-02T21:43:56.494Z,100786.91
2023-05-02T21:46:28.660Z,100779.84
2023-05-02T21:48:58.295Z,100782.47
2023-05-02T21:51:27.820Z,100782.44
2023-05-02T21:53:57.361Z,100786.84
2023-05-02T21:56:27.046Z,100793.88
2023-05-02T21:58:56.608Z,100791.22
2023-05-02T22:01:28.932Z,100787.72
2023-05-02T22:03:59.051Z,100793.00
2023-05-02T22:06:28.840Z,100800.91
2023-05-02T22:08:58.496Z,100795.63
2023-05-02T22:11:28.493Z,100814.09
2023-05-02T22:13:58.080Z,100805.28
2023-05-02T22:16:30.254Z,100806.13
2023-05-02T22:19:01.348Z,100806.13
2023-05-02T22:21:31.729Z,100817.53
2023-05-02T22:24:01.378Z,100823.69
2023-05-02T22:26:31.048Z,100821.91
2023-05-02T22:29:00.692Z,100826.31
2023-05-02T22:31:32.818Z,100828.88
2023-05-02T22:34:02.373Z,100833.28
2023-05-02T22:36:32.117Z,100831.50
2023-05-02T22:39:01.661Z,100827.94
2023-05-02T22:41:31.195Z,100830.59
2023-05-02T22:44:00.764Z,100828.81
2023-05-02T22:46:32.918Z,100823.47
2023-05-02T22:49:03.077Z,100821.66
2023-05-02T22:51:32.781Z,100830.47
2023-05-02T22:54:04.895Z,100819.00
2023-05-02T22:56:34.529Z,100840.06
2023-05-02T22:59:04.070Z,100829.47
2023-05-02T23:01:36.285Z,100832.91
2023-05-02T23:04:06.029Z,100837.31
2023-05-02T23:06:35.690Z,100854.00
2023-05-02T23:09:05.215Z,100855.78
2023-05-02T23:11:34.752Z,100854.91
2023-05-02T23:14:04.262Z,100861.06
2023-05-02T23:16:36.490Z,100864.53
2023-05-02T23:19:06.037Z,100868.06
2023-05-02T23:21:35.586Z,100870.69
2023-05-02T23:24:05.247Z,100865.38
2023-05-02T23:26:34.767Z,100869.72
2023-05-02T23:29:05.911Z,100872.31
2023-05-02T23:31:38.197Z,100867.03
2023-05-02T23:34:09.048Z,100870.47
2023-05-02T23:36:39.529Z,100871.34
2023-05-02T23:39:09.063Z,100869.63
2023-05-02T23:41:38.725Z,100871.34
2023-05-02T23:44:08.569Z,100873.97
2023-05-02T23:46:40.733Z,100873.94
2023-05-02T23:49:10.290Z,100875.69
2023-05-02T23:51:39.792Z,100876.59
2023-05-02T23:54:09.560Z,100871.25
2023-05-02T23:56:39.112Z,100872.91
2023-05-02T23:59:08.679Z,100877.28
